Tiempo atmosférico en la estación meteorológica de A Pobra de Trives, Ourense (840 m.)



Fecha
DESCASC
Temp. máxima en grados centígrados (hora)
DESCASC
Temp. mínima en grados centígrados (hora)
DESCASC
Temp. media en grados centígrados
DESCASC
Racha de viento máxima en m/sg (hora)
DESCASC
Velocidad máxima media en intervalos de 10 minutos(hora)
DESCASC
Precipitaciones diarias en mm
DESCASC
Precipitaciones de 00:00 a 06:00 en mm
DESCASC
Precipitaciones de 06:00 a 12:00 en mm
DESCASC
Precipitaciones de 12:00 a 18:00 en mm
DESCASC
Precipitaciones de 18:00 a 24:00 en mm
DESCASC
16-02-2020 16.1 (13:40) 8.1 (00:30) 12.1 13.89 (13:20) 6.11 (15:40) 0 0 0 0 0
15-02-2020 13.7 (15:40) 3.5 (03:40) 8.6 10.56 (16:30) 4.72 (16:00) 0 0 0 0 0
14-02-2020 14 (14:50) 4.7 (23:50) 9.3 5.28 (17:20) 2.78 (20:00) 0 0 0 0 0
13-02-2020 15 (13:20) 6.7 (00:00) 10.8 10.56 (14:50) 5.83 (12:10) 0 0 0 0 0
12-02-2020 13.4 (15:30) 5.7 (00:00) 9.5 7.22 (20:30) 3.61 (21:30) 0 0 0 0 0
11-02-2020 13 (12:50) 5.1 (00:00) 9 7.5 (05:20) 3.89 (05:20) 0.2 0 0 0 0.2
10-02-2020 17.4 (14:20) 6.5 (00:00) 11.9 10.56 (16:20) 5.56 (14:50) 0 0 0 0 0
09-02-2020 11.5 (15:40) 4.4 (00:00) 8 10.83 (23:59) 4.17 (23:40) 0 0 0 0 0
08-02-2020 12.3 (14:40) 4.3 (00:00) 8.3 12.5 (06:20) 6.11 (06:20) 5.4 3.2 2.2 0 0
07-02-2020 14.2 (14:50) 2.8 (00:00) 8.5 9.72 (15:10) 4.72 (15:10) 0 0 0 0 0
06-02-2020 13.5 (15:50) 0.7 (00:00) 7.1 5 (16:00) 3.06 (16:00) 0 0 0 0 0
05-02-2020 12.5 (15:50) 3.5 (00:00) 8 6.39 (21:40) 3.61 (21:40) 0 0 0 0 0
04-02-2020 15.4 (14:00) 3.5 (00:00) 9.4 6.67 (15:30) 4.17 (15:30) 0 0 0 0 0
03-02-2020 19.2 (15:00) 5 (07:40) 12.1 8.61 (15:30) 4.44 (15:40) 0 0 0 0 0
02-02-2020 16.7 (16:40) 8.1 (00:00) 12.4 8.06 (17:10) 3.89 (08:30) 0 0 0 0 0
01-02-2020 16.9 (14:30) 10.3 (00:00) 13.6 10.83 (00:20) 4.72 (00:20) 1.2 1.2 0 0 0
31-01-2020 15.6 (14:20) 7.9 (00:00) 11.8 12.5 (21:20) 5.28 (21:20) 4.4 0 0 0 4.4
30-01-2020 11.4 (12:50) 7.7 (00:00) 9.5 10 (05:20) 3.89 (10:50) 0 0 0 0 0
29-01-2020 10.9 (16:10) 8.1 (00:00) 9.5 10.28 (00:10) 5.28 (00:20) 3.6 0.4 2.2 0.6 0.4
28-01-2020 10.3 (17:10) 6.4 (00:00) 8.4 11.67 (21:50) 5.83 (23:20) 2.6 1.4 0.2 0.2 0.8
27-01-2020 9.8 (14:30) 5.4 (00:00) 7.6 17.5 (22:30) 7.78 (22:50) 13.2 0 8.6 0.4 4.2
26-01-2020 11.6 (13:50) -0.2 (00:00) 5.7 8.89 (13:00) 3.61 (14:10) 0 0 0 0 0
25-01-2020 8.9 (15:40) -0.2 (00:00) 4.3 6.94 (22:00) 3.06 (22:00) 0 0 0 0 0
24-01-2020 8 (16:20) 1.6 (00:00) 4.8 4.17 (04:50) 2.5 (05:30) 2.6 0 0 2 0.6
23-01-2020 9 (15:00) 1.4 (00:00) 5.2 8.33 (09:50) 3.89 (16:50) 0 0 0 0 0
22-01-2020 8.8 (13:50) 3 (00:00) 5.9 8.89 (16:00) 5 (15:50) 0 0 0 0 0

Gráficas

Temp. máximas Temp. mínimas Temp. medias Precipitaciones Rachas de viento máximas Velocidades máximas media en intervalos de 10 minutos

Datos horarios

Fecha y hora oficial Temperatura (ºC) Velocidad del viento (km/h) Dirección del viento Racha (km/h) Dirección de racha Precipitación (mm) Presión (hPa) Tendencia (hPa) Humedad (%)
2020-02-20 23:00:00 5 12 Oeste 21 Oeste 0 930.5 1.9 84
2020-02-20 22:00:00 6.4 12 Oeste 26 Oeste 0 929.8 2 82
2020-02-20 21:00:00 7.3 15 Oeste 27 Oeste 0 928.9 1.7 78
2020-02-20 20:00:00 7.6 9 Oeste 19 Oeste 0 928.6 1.1 70
2020-02-20 19:00:00 9.1 7 Oeste 14 Oeste 0 927.8 0 58
2020-02-20 18:00:00 10.8 2 Este 10 Nordeste 0 927.2 -0.9 52
2020-02-20 17:00:00 12 8 Este 14 Nordeste 0 927.5 -0.5 52
2020-02-20 16:00:00 12.9 4 Noroeste 18 Oeste 0 927.8 -0.2 45
2020-02-20 15:00:00 12.8 10 Noroeste 27 Noroeste 0 928.1 0.1 55
2020-02-20 14:00:00 12.8 10 Oeste 26 Oeste 0 928 0.1 55
2020-02-20 13:00:00 13 3 Nordeste 13 Sudeste 0 928 0.4 50
2020-02-20 12:00:00 10.5 4 Nordeste 12 Norte 0 928 1.1 56
2020-02-20 11:00:00 8.5 5 Sudeste 10 Este 0 927.9 1.4 62
2020-02-20 10:00:00 5.4 6 Norte 12 Norte 0 927.6 1.2 75
2020-02-20 09:00:00 2.5 7 Noroeste 12 Noroeste 0 926.9 0.4 80
2020-02-20 08:00:00 1.2 5 Norte 11 Sudoeste 0 926.5 0 84
2020-02-20 07:00:00 1.6 5 Oeste 10 Norte 0 926.4 -0.2 80
2020-02-20 06:00:00 2.4 4 Noroeste 12 Oeste 0 926.5 -0.4 78
2020-02-20 05:00:00 2 5 Sudoeste 10 Sudoeste 0 926.5 -0.9 80
2020-02-20 04:00:00 2.2 6 Oeste 17 Norte 0 926.6 -1.5 79
2020-02-20 03:00:00 2.3 6 Noroeste 13 Norte 0 926.9 -1.7 79
2020-02-20 02:00:00 2.7 8 Norte 11 Norte 0 927.4 -1.7 78
2020-02-20 01:00:00 3.1 5 Noroeste 9 Norte 0 928.1 -1.4 77
2020-02-20 00:00:00 2.5 6 Noroeste 12 Noroeste 0 928.6 -1.2 75
2020-02-19 23:00:00 2.8 8 Noroeste 14 Oeste 0 929.1 -1.1 76
2020-02-19 22:00:00 3.3 8 Noroeste 13 Noroeste 0 929.5 -0.8 75
2020-02-19 21:00:00 5 6 Noroeste 10 Noroeste 0 929.8 -0.8 70
2020-02-19 20:00:00 7.6 4 Sudoeste 6 Sudoeste 0 930.2 -0.7 57
2020-02-19 19:00:00 9.2 3 Sur 6 Sudeste 0 930.3 -1 48
2020-02-19 18:00:00 10.2 4 Este 11 Este 0 930.6 -1.3 52
2020-02-19 17:00:00 11.4 5 Este 13 Este 0 930.9 -1.9 51
2020-02-19 16:00:00 11.8 8 Este 14 Este 0 931.3 -2.6 49
2020-02-19 15:00:00 12.2 6 Sudeste 13 Sudeste 0 931.9 -2.6 51
2020-02-19 14:00:00 11 3 Noroeste 13 Este 0 932.8 -2.1 53
2020-02-19 13:00:00 8.9 4 Este 14 Sudeste 0 933.9 -1.3 59
2020-02-19 12:00:00 6.6 7 Este 16 Sudeste 0 934.5 -0.4 66
2020-02-19 11:00:00 4.6 6 Este 12 Este 0 934.9 0.1 74
2020-02-19 10:00:00 2.2 3 Noroeste 11 Noroeste 0 935.2 1 82
2020-02-19 09:00:00 -0.8 6 Noroeste 13 Noroeste 0 934.9 0.3 88
2020-02-19 08:00:00 -2.3 4 Sudoeste 9 Noroeste 0 934.8 0.3 93
2020-02-19 07:00:00 -2.4 5 Oeste 13 Noroeste 0 934.2 -0.6 91
2020-02-19 06:00:00 -2.1 8 Noroeste 12 Noroeste 0 934.6 -0.2 91
2020-02-19 05:00:00 -1.2 4 Oeste 11 Noroeste 0 934.5 -0.6 91
2020-02-19 04:00:00 -1.4 4 Oeste 13 Noroeste 0 934.8 -0.4 90
2020-02-19 03:00:00 -1.3 7 Noroeste 14 Noroeste 0 934.8 -0.8 90
2020-02-19 02:00:00 -0.9 6 Noroeste 12 Noroeste 0 935.1 -1.1 90
2020-02-19 01:00:00 -0.6 5 Noroeste 15 Noroeste 0 935.2 -0.8 88
2020-02-19 00:00:00 0.3 6 Noroeste 13 Noroeste 0 935.6 0.1 86
2020-02-18 23:00:00 1.5 8 Oeste 14 Oeste 0 936.2 0.8 83
2020-02-18 22:00:00 2.1 8 Oeste 15 Oeste 0 936 0.9 81
2020-02-18 21:00:00 3.1 8 Oeste 14 Oeste 0 935.5 0.5 78
2020-02-18 20:00:00 3.8 5 Oeste 13 Noroeste 0 935.4 0.8 73
2020-02-18 19:00:00 5.2 5 Oeste 27 Oeste 0 935.1 1 68
2020-02-18 18:00:00 6.6 10 Noroeste 26 Oeste 0 935 0.5 64
2020-02-18 17:00:00 7.6 11 Noroeste 22 Noroeste 0 934.6 -1 63
2020-02-18 16:00:00 8.7 7 Noroeste 15 Noroeste 0 934.1 -2.2 59
2020-02-18 15:00:00 9.4 4 Noroeste 17 Noroeste 0 934.5 -2 58
2020-02-18 14:00:00 8.2 7 Noroeste 18 Noroeste 0 935.6 -0.6 61
2020-02-18 13:00:00 7.2 5 Este 15 Sudeste 0 936.3 0.4 73
2020-02-18 12:00:00 5.6 6 Sudeste 12 Sudeste 0 936.5 1 79
2020-02-18 11:00:00 2.1 4 Este 9 Sudeste 0 936.2 1.3 90
2020-02-18 10:00:00 2.2 2 Noroeste 10 Noroeste 0 935.9 1.2 87
2020-02-18 09:00:00 -1 7 Noroeste 13 Noroeste 0 935.5 0.8 93
2020-02-18 08:00:00 -2.1 7 Noroeste 13 Oeste 0 934.9 0.5 93
2020-02-18 07:00:00 -1.5 7 Oeste 16 Oeste 0 934.7 0 93
2020-02-18 06:00:00 -0.5 9 Oeste 21 Oeste 0 934.7 -0.2 91
2020-02-18 05:00:00 0.1 9 Noroeste 20 Noroeste 0 934.4 -0.6 93
2020-02-18 04:00:00 0.8 10 Oeste 19 Oeste 0 934.7 -0.3 95
2020-02-18 03:00:00 1 10 Oeste 20 Oeste 0 934.9 -0.3 95
2020-02-18 02:00:00 0.6 10 Oeste 19 Oeste 0 935 -0.4 92
2020-02-18 01:00:00 1.2 9 Noroeste 14 Noroeste 0 935 -0.1 91
2020-02-18 00:00:00 1.5 8 Noroeste 13 Oeste 0 935.2 0.3 89
2020-02-17 23:00:00 2.4 8 Oeste 14 Oeste 0 935.4 1.3 89
2020-02-17 22:00:00 3.1 8 Oeste 19 Oeste 0 935.1 1.6 87
2020-02-17 21:00:00 3.8 6 Oeste 14 Sudoeste 0 934.9 1.9 86
2020-02-17 20:00:00 4.9 4 Oeste 16 Oeste 0 934.1 1.5 82
2020-02-17 19:00:00 6.4 6 Oeste 16 Oeste 0 933.5 1.2 75
2020-02-17 18:00:00 8.1 5 Noroeste 22 Noroeste 0 933 1.1 69
2020-02-17 17:00:00 8.3 11 Oeste 21 Oeste 0 932.6 0.4 71
2020-02-17 16:00:00 8.7 6 Noroeste 29 Oeste 0 932.3 -0.1 70
2020-02-17 15:00:00 8.9 13 Noroeste 29 Noroeste 0 931.9 -0.3 69
2020-02-17 14:00:00 9.3 14 Oeste 29 Oeste 0.2 932.2 0.8 72
2020-02-17 13:00:00 7.9 10 Noroeste 30 Oeste 0.2 932.4 1.7 83
2020-02-17 12:00:00 8.6 13 Oeste 30 Oeste 0 932.2 2.4 79
2020-02-17 11:00:00 7.5 14 Oeste 25 Oeste 0 931.4 2.5 87
2020-02-17 10:00:00 6.6 13 Oeste 24 Oeste 0.6 930.7 2.8 94
2020-02-17 09:00:00 6 10 Oeste 32 Oeste 0 929.8 2.8 93
2020-02-17 08:00:00 6.1 17 Oeste 39 Oeste 1.8 928.9 2.6 94
2020-02-17 07:00:00 7.2 12 Oeste 28 Oeste 1.6 927.9 2.6 94
2020-02-17 06:00:00 8.3 10 Oeste 34 Oeste 2.2 927 1.5 94
2020-02-17 05:00:00 9.4 14 Oeste 42 Noroeste 1.2 926.3 0.4 93
2020-02-17 04:00:00 11.3 11 Sudoeste 30 Sudoeste 0.2 925.3 -0.8 89
2020-02-17 03:00:00 11.3 4 Norte 23 Sur 0 925.5 -0.8 86
2020-02-17 02:00:00 11.2 3 Noroeste 15 Sudoeste 0 925.9 -0.6 88
2020-02-17 01:00:00 11.5 10 Sudoeste 25 Sudoeste 0.2 926.1 -0.5 85
2020-02-17 00:00:00 11.6 10 Sudoeste 40 Sudoeste 0 926.3 0.1 83
2020-02-16 23:00:00 11.2 10 Oeste 22 Oeste 0 926.5 0.5 86
2020-02-16 22:00:00 11.7 10 Oeste 30 Sudoeste 0 926.6 1.3 82
2020-02-16 21:00:00 11.9 13 Oeste 30 Sudoeste 0 926.2 1.3 80
2020-02-16 20:00:00 12.2 13 Oeste 36 Sudoeste 0 926 0.7 74
2020-02-16 19:00:00 12.2 17 Sudoeste 45 Sudoeste 0 925.3 -0.1 72
2020-02-16 18:00:00 12.9 19 Sudoeste 44 Sudoeste 0 924.9 -0.7 66
2020-02-16 17:00:00 13.7 18 Sudoeste 48 Sudoeste 0 925.3 -0.8 64
2020-02-16 16:00:00 15.3 18 Sudoeste 44 Oeste 0 925.4 -1.4 59
2020-02-16 15:00:00 14.8 15 Sudoeste 38 Sudoeste 0 925.6 -0.9 61
2020-02-16 14:00:00 14.9 20 Sudoeste 50 Sudoeste 0 926.1 -0.3 60
2020-02-16 13:00:00 15.3 17 Sudoeste 45 Sudoeste 0 926.8 1.1 62
2020-02-16 12:00:00 12.7 17 Sudoeste 39 Sudoeste 0 926.5 1 70
2020-02-16 11:00:00 11.9 9 Este 23 Este 0 926.4 1.2 77
2020-02-16 10:00:00 11.1 10 Este 31 Sudeste 0 925.7 0.4 77
2020-02-16 09:00:00 8.8 10 Este 28 Este 0 925.5 0.6 86
2020-02-16 08:00:00 8.8 13 Este 30 Nordeste 0 925.2 -0.4 85
2020-02-16 07:00:00 9 11 Nordeste 32 Norte 0 925.3 -0.6 80
2020-02-16 06:00:00 9 12 Nordeste 28 Norte 0 924.9 -1.4 81
2020-02-16 05:00:00 8.7 11 Nordeste 26 Este 0 925.6 -1 82
2020-02-16 04:00:00 8.5 10 Este 21 Este 0 925.9 -0.7 82
2020-02-16 03:00:00 8.7 7 Este 22 Este 0 926.3 -0.6 81
2020-02-16 02:00:00 8.6 13 Sudeste 30 Este 0 926.6 -0.5 81
2020-02-16 01:00:00 8.5 11 Nordeste 22 Nordeste 0 926.6 -0.4 80
2020-02-16 00:00:00 8.3 8 Nordeste 18 Nordeste 0 926.9 1.1 80
2020-02-15 23:00:00 8.6 10 Norte 21 Nordeste 0 927.1 0.1 78
2020-02-15 22:00:00 8 8 Norte 18 Norte 0 927 -0.3 80
2020-02-15 21:00:00 8.5 12 Nordeste 24 Este 0 925.8 -0.8 80
2020-02-15 20:00:00 9.4 4 Oeste 18 Oeste 0 927 0.1 70
2020-02-15 19:00:00 10.1 12 Oeste 22 Noroeste 0 927.3 1.1 69
2020-02-15 18:00:00 11.5 6 Este 27 Sudoeste 0 926.6 0.6 68
2020-02-15 17:00:00 12 8 Oeste 38 Sudoeste 0 926.9 0.5 64
2020-02-15 16:00:00 13 17 Oeste 36 Oeste 0 926.2 -0.9 58
2020-02-15 15:00:00 13.3 8 Nordeste 24 Este 0 926 -1.4 63
2020-02-15 14:00:00 13.4 8 Nordeste 23 Este 0 926.4 -1 61
2020-02-15 13:00:00 11.1 9 Nordeste 18 Este 0 927.1 -0.5 76
2020-02-15 12:00:00 9.9 7 Este 16 Nordeste 0 927.4 0.6 81
2020-02-15 11:00:00 8.6 8 Este 16 Sudeste 0 927.4 1 85
2020-02-15 10:00:00 8.1 3 Este 8 Norte 0 927.6 1.9 89
2020-02-15 09:00:00 5.2 2 Norte 13 Noroeste 0 926.8 0.7 95
2020-02-15 08:00:00 4 8 Noroeste 15 Noroeste 0 926.4 0.2 96
2020-02-15 07:00:00 3.9 8 Norte 13 Norte 0 925.7 -0.5 96
2020-02-15 06:00:00 4.1 3 Norte 13 Norte 0 926.1 -0.3 96
2020-02-15 05:00:00 3.9 6 Noroeste 13 Norte 0 926.2 -0.8 96
2020-02-15 04:00:00 3.8 4 Noroeste 13 Noroeste 0 926.2 -1.2 95
2020-02-15 03:00:00 4 3 Noroeste 10 Norte 0 926.4 -1.4 93
2020-02-15 02:00:00 4.3 6 Noroeste 12 Noroeste 0 927 -0.6 94
2020-02-15 01:00:00 4.3 8 Noroeste 13 Noroeste 0 927.4 0 93
2020-02-15 00:00:00 5 8 Oeste 12 Noroeste 0 927.8 0 93
2020-02-14 23:00:00 5.8 8 Noroeste 15 Noroeste 0 927.6 -0.3 92
2020-02-14 22:00:00 6.6 3 Este 7 Oeste 0 927.4 -0.4 91
2020-02-14 21:00:00 7.4 5 Oeste 12 Oeste 0 927.8 0.5 89
2020-02-14 20:00:00 8.9 10 Oeste 18 Oeste 0 927.9 0.7 86
2020-02-14 19:00:00 9.6 8 Oeste 16 Noroeste 0 927.8 0.6 80
2020-02-14 18:00:00 11.7 7 Noroeste 19 Oeste 0 927.3 -0.4 66
2020-02-14 17:00:00 12.9 5 Oeste 16 Nordeste 0 927.2 -1 58
2020-02-14 16:00:00 13.3 8 Noroeste 18 Noroeste 0 927.2 -1.4 59
2020-02-14 15:00:00 13.8 8 Noroeste 18 Noroeste 0 927.7 -1.2 58
2020-02-14 14:00:00 13.3 5 Norte 17 Oeste 0 928.2 -0.8 60
2020-02-14 13:00:00 13.3 10 Este 18 Nordeste 0 928.6 -0.5 62
2020-02-14 12:00:00 11.7 7 Sudeste 13 Sudeste 0 928.9 0.1 67
2020-02-14 11:00:00 9.6 5 Este 8 Sudeste 0 929 0.6 72
2020-02-14 10:00:00 7.9 5 Noroeste 9 Noroeste 0 929.1 0.8 83
2020-02-14 09:00:00 6.8 6 Noroeste 11 Sur 0 928.8 0.7 88
2020-02-14 08:00:00 6.8 5 Sudoeste 13 Sudoeste 0 928.4 0.6 78
2020-02-14 07:00:00 7 5 Oeste 13 Sudoeste 0 928.3 0.1 85
2020-02-14 06:00:00 5.2 7 Oeste 15 Noroeste 0 928.1 -0.3 90
2020-02-14 05:00:00 5 5 Noroeste 12 Noroeste 0 927.8 -0.7 91
2020-02-14 04:00:00 6 7 Oeste 10 Noroeste 0 928.2 -0.5 88
2020-02-14 03:00:00 6.8 3 Oeste 6 Sudoeste 0 928.4 -0.2 87
2020-02-14 02:00:00 7.6 2 Sudoeste 7 Noroeste 0 928.5 -0.2 83
2020-02-14 01:00:00 7.8 4 Noroeste 8 Oeste 0 928.7 0.2 85
2020-02-14 00:00:00 7.6 4 Oeste 8 Oeste 0 928.6 0.4 87
2020-02-13 23:00:00 7.3 4 Oeste 10 Oeste 0 928.7 0.8 89
2020-02-13 22:00:00 7.2 6 Oeste 19 Noroeste 0 928.5 1.1 87
2020-02-13 21:00:00 7.9 5 Noroeste 14 Noroeste 0 928.2 1.4 84
2020-02-13 20:00:00 9.1 6 Noroeste 19 Oeste 0 927.9 1.6 80
2020-02-13 19:00:00 10.1 9 Oeste 23 Oeste 0 927.4 1 76
2020-02-13 18:00:00 11.5 9 Oeste 27 Sudoeste 0 926.8 0.4 70
2020-02-13 17:00:00 12.3 10 Oeste 30 Oeste 0 926.3 0 66
2020-02-13 16:00:00 13.1 14 Oeste 35 Oeste 0 926.4 -0.1 62
2020-02-13 15:00:00 13.8 14 Oeste 38 Oeste 0 926.4 0 65
2020-02-13 14:00:00 12.5 14 Oeste 37 Sudoeste 0 926.3 0.6 69
2020-02-13 13:00:00 13.7 17 Sudoeste 36 Sudoeste 0 926.5 1.5 68
2020-02-13 12:00:00 11.1 17 Oeste 33 Oeste 0 926.4 1.6 84
2020-02-13 11:00:00 11.2 14 Oeste 28 Oeste 0 925.7 1.4 78
2020-02-13 10:00:00 10 9 Oeste 27 Sudoeste 0 925 1.1 85
2020-02-13 09:00:00 9 14 Oeste 29 Oeste 0 924.8 0.9 86
2020-02-13 08:00:00 8.8 14 Oeste 32 Sudoeste 0 924.3 0.7 82
2020-02-13 07:00:00 8.8 11 Oeste 26 Oeste 0 923.9 0.1 83
2020-02-13 06:00:00 9.2 13 Oeste 30 Oeste 0 923.9 0 85
2020-02-13 05:00:00 9.3 11 Oeste 33 Sudoeste 0 923.6 -0.5 85
2020-02-13 04:00:00 9.5 12 Sudoeste 25 Sudoeste 0 923.8 -0.5 84
2020-02-13 03:00:00 8.8 12 Oeste 23 Sudoeste 0 923.9 -0.8 87
2020-02-13 02:00:00 8.8 9 Oeste 25 Noroeste 0 924.1 -0.5 84
2020-02-13 01:00:00 9.6 6 Oeste 22 Oeste 0 924.3 -0.2 78
2020-02-13 00:00:00 10 10 Oeste 21 Noroeste 0 924.7 0.3 80
2020-02-12 23:00:00 9.8 12 Oeste 20 Oeste 0 924.6 0.1 82
2020-02-12 22:00:00 10.1 6 Oeste 26 Sudoeste 0 924.5 0.4 80
2020-02-12 21:00:00 10.8 11 Oeste 26 Sudoeste 0 924.4 0.4 81
2020-02-12 20:00:00 11.2 12 Oeste 22 Oeste 0 924.5 0.6 84
2020-02-12 19:00:00 11.3 3 Norte 13 Oeste 0 924.1 -0.2 82
2020-02-12 18:00:00 12.8 7 Noroeste 15 Oeste 0 924 -1 76
2020-02-12 17:00:00 13.2 3 Este 9 Sudeste 0 923.9 -2.2 72
2020-02-12 16:00:00 12.9 7 Sudeste 16 Este 0 924.3 -2.5 72
2020-02-12 15:00:00 12.7 7 Este 12 Este 0 925 -2.1 78
2020-02-12 14:00:00 11.4 5 Este 11 Este 0 926.1 -1.3 82
2020-02-12 13:00:00 10.5 4 Este 11 Este 0 926.8 -0.7 86
2020-02-12 12:00:00 9.3 4 Este 9 Este 0 927.1 -0.2 94
2020-02-12 11:00:00 7.7 4 Sudeste 9 Este 0 927.4 0.2 96
2020-02-12 10:00:00 7 2 Sur 6 Noroeste 0 927.5 0.3 96
2020-02-12 09:00:00 5.8 3 Oeste 7 Oeste 0 927.3 -0.1 94
2020-02-12 08:00:00 6.5 3 Noroeste 5 Noroeste 0 927.2 -0.2 95
2020-02-12 07:00:00 8 2 Este 5 Sudeste 0 927.2 -0.8 95
2020-02-12 06:00:00 8 0 Calma 7 Sudeste 0 927.4 -1 96
2020-02-12 05:00:00 7.9 4 Sudeste 10 Norte 0 927.4 -1.3 96
2020-02-12 04:00:00 8.3 6 Oeste 13 Oeste 0 928 -0.7 95
2020-02-12 03:00:00 8.3 6 Noroeste 11 Noroeste 0 928.4 -0.5 94
2020-02-12 02:00:00 8.2 5 Noroeste 14 Oeste 0 928.7 0.3 93
2020-02-12 01:00:00 8.4 7 Oeste 19 Oeste 0 928.7 0.6 94
2020-02-12 00:00:00 8.3 10 Oeste 22 Oeste 0 928.9 0.3 94
2020-02-11 23:00:00 8.4 10 Oeste 19 Oeste 0 928.4 -1 92
2020-02-11 22:00:00 8.4 4 Noroeste 9 Noroeste 0 928.1 -1.3 90
2020-02-11 21:00:00 8.9 3 Oeste 8 Sudoeste 0.2 928.6 -0.8 89
2020-02-11 20:00:00 9.3 4 Oeste 10 Noroeste 0 929.4 -0.3 88
2020-02-11 19:00:00 9.5 6 Norte 12 Noroeste 0 929.4 -0.2 87
2020-02-11 18:00:00 10.3 6 Noroeste 12 Noroeste 0 929.4 -0.5 83
2020-02-11 17:00:00 10.8 4 Noroeste 17 Oeste 0 929.7 -1 80
2020-02-11 16:00:00 11.5 9 Noroeste 19 Oeste 0 929.6 -1.6 72
2020-02-11 15:00:00 12.1 3 Noroeste 11 Noroeste 0 929.9 -1.7 69
2020-02-11 14:00:00 12.6 7 Noroeste 15 Noroeste 0 930.7 -1.2 64
2020-02-11 13:00:00 12.7 5 Oeste 11 Sudoeste 0 931.2 -0.9 60
2020-02-11 12:00:00 11 4 Oeste 10 Sudoeste 0 931.6 0 71
2020-02-11 11:00:00 9.5 5 Noroeste 12 Noroeste 0 931.9 0.8 90
2020-02-11 10:00:00 7.6 6 Noroeste 18 Oeste 0 932.1 1.3 95
2020-02-11 09:00:00 7.5 8 Oeste 26 Oeste 0 931.6 0.2 91
2020-02-11 08:00:00 7.2 3 Noroeste 8 Noroeste 0 931.1 -0.2 86
2020-02-11 07:00:00 7 3 Sudoeste 7 Oeste 0 930.8 -0.9 85
2020-02-11 06:00:00 6.8 5 Sudoeste 27 Oeste 0 931.4 -0.8 82
2020-02-11 05:00:00 6.6 8 Noroeste 17 Noroeste 0 931.3 -1.2 78
2020-02-11 04:00:00 6.1 6 Oeste 12 Noroeste 0 931.7 -1.1 77
2020-02-11 03:00:00 5.4 6 Noroeste 13 Oeste 0 932.2 -0.9 80
2020-02-11 02:00:00 5.7 6 Oeste 16 Noroeste 0 932.5 -1.3 80
2020-02-11 01:00:00 5.7 9 Noroeste 18 Noroeste 0 932.8 -1.3 90
2020-02-11 00:00:00 6.6 6 Oeste 11 Noroeste 0 933.1 -0.9 92
2020-02-10 23:00:00 7.4 2 Noroeste 9 Noroeste 0 933.8 0.2 89
2020-02-10 22:00:00 8.1 7 Noroeste 14 Noroeste 0 934.1 0.4 90
2020-02-10 21:00:00 9.4 5 Oeste 19 Oeste 0 934 1 82
2020-02-10 20:00:00 10.1 11 Oeste 22 Noroeste 0 933.6 0.7 83
2020-02-10 19:00:00 10.8 14 Oeste 35 Oeste 0 933.7 1 78
2020-02-10 18:00:00 12.4 13 Oeste 28 Oeste 0 933 0.2 68
2020-02-10 17:00:00 13.8 12 Oeste 38 Oeste 0 932.9 -0.2 65
2020-02-10 16:00:00 16 17 Oeste 36 Oeste 0 932.7 -1.4 58
2020-02-10 15:00:00 16 17 Oeste 37 Noroeste 0 932.8 -1.4 56
2020-02-10 14:00:00 17 10 Oeste 22 Oeste 0 933.1 -1.1 51
2020-02-10 13:00:00 16 12 Oeste 30 Oeste 0 934.1 0.1 58
2020-02-10 12:00:00 14.9 5 Nordeste 19 Oeste 0 934.2 0.4 66
2020-02-10 11:00:00 13.5 6 Noroeste 17 Noroeste 0 934.2 0.8 73
2020-02-10 10:00:00 10.4 5 Este 10 Norte 0 934 1.3 91
2020-02-10 09:00:00 9.9 6 Oeste 18 Sudoeste 0 933.8 1.1 87
2020-02-10 08:00:00 9.9 3 Noroeste 8 Noroeste 0 933.4 1 91
2020-02-10 07:00:00 10.4 3 Sudeste 27 Noroeste 0 932.7 0.1 87
2020-02-10 06:00:00 10.3 3 Oeste 18 Noroeste 0 932.7 0.1 89
2020-02-10 05:00:00 10.8 9 Noroeste 24 Oeste 0 932.4 0 88
2020-02-10 04:00:00 10.9 12 Oeste 27 Oeste 0 932.6 0 88
2020-02-10 03:00:00 11.2 13 Oeste 36 Oeste 0 932.6 0.5 85
2020-02-10 02:00:00 11.4 15 Oeste 33 Sudoeste 0 932.4 -0.3 85
2020-02-10 01:00:00 10.2 4 Sur 29 Oeste 0 932.6 0.4 88
2020-02-10 00:00:00 10.9 13 Oeste 39 Sudoeste 0 932.1 0 85
2020-02-09 23:00:00 9.8 4 Sudeste 24 Noroeste 0 932.7 1 88
2020-02-09 22:00:00 9.9 6 Norte 19 Noroeste 0 932.2 0.9 88
2020-02-09 21:00:00 9.9 4 Este 20 Oeste 0 932.1 1.5 86
2020-02-09 20:00:00 10.9 9 Oeste 26 Sudoeste 0 931.7 1.7 82
2020-02-09 19:00:00 10.9 10 Oeste 28 Sudoeste 0 931.3 1.7 81
2020-02-09 18:00:00 10.3 5 Sudeste 26 Oeste 0 930.6 0.9 82
2020-02-09 17:00:00 10.6 4 Sudoeste 17 Noroeste 0 930 -0.2 80
2020-02-09 16:00:00 11.2 9 Sudoeste 31 Sudoeste 0 929.6 -0.7 76
2020-02-09 15:00:00 10.4 7 Nordeste 18 Oeste 0 929.7 -0.8 81
2020-02-09 14:00:00 10 8 Este 14 Nordeste 0 930.2 -0.1 80
2020-02-09 13:00:00 9.4 8 Este 19 Nordeste 0 930.3 0.2 81
2020-02-09 12:00:00 7.9 6 Este 13 Norte 0 930.5 0.8 85
2020-02-09 11:00:00 7.3 6 Nordeste 13 Nordeste 0 930.3 1.4 86
2020-02-09 10:00:00 6.7 5 Nordeste 12 Norte 0 930.1 1.3 88
2020-02-09 09:00:00 6.3 5 Nordeste 13 Norte 0 929.7 1.1 90
2020-02-09 08:00:00 6.3 5 Norte 9 Oeste 0 928.9 0.8 90
2020-02-09 07:00:00 6.2 4 Este 8 Noroeste 0 928.8 0.8 90
2020-02-09 06:00:00 6.2 3 Nordeste 8 Sudoeste 0 928.6 0.4 90
2020-02-09 05:00:00 6.2 3 Este 8 Sudoeste 0 928.1 0.4 91
2020-02-09 04:00:00 6.1 4 Norte 13 Nordeste 0 928 0.1 91
2020-02-09 03:00:00 5.9 3 Nordeste 10 Noroeste 0 928.2 -0.1 92
2020-02-09 02:00:00 5.4 4 Oeste 15 Noroeste 0 927.7 -0.3 92
2020-02-09 01:00:00 4.5 5 Noroeste 14 Sudoeste 0 927.9 -0.1 92
2020-02-09 00:00:00 4.6 4 Norte 12 Noroeste 0 928.3 0.4 92
2020-02-08 23:00:00 5 5 Sudoeste 9 Sudoeste 0 928 0.3 89
2020-02-08 22:00:00 5.7 3 Norte 14 Oeste 0 928 0.6 88
2020-02-08 21:00:00 6.1 9 Oeste 18 Oeste 0 927.9 1.1 86
2020-02-08 20:00:00 7 7 Sudoeste 10 Sudoeste 0 927.7 1.5 82
2020-02-08 19:00:00 8.1 4 Sudoeste 13 Noroeste 0 927.4 1.6 81
2020-02-08 18:00:00 9.2 8 Oeste 20 Oeste 0 926.8 0.6 69
2020-02-08 17:00:00 10.7 9 Noroeste 19 Oeste 0 926.2 -0.4 68
2020-02-08 16:00:00 11.6 12 Oeste 25 Oeste 0 925.8 -1.1 60
2020-02-08 15:00:00 11.7 6 Oeste 28 Oeste 0 926.2 -0.3 63
2020-02-08 14:00:00 12.1 12 Oeste 28 Oeste 0 926.6 0.2 62
2020-02-08 13:00:00 9.8 7 Norte 15 Norte 0 926.9 0.4 78
2020-02-08 12:00:00 9.1 6 Sudeste 13 Sudeste 0 926.5 0.3 82
2020-02-08 11:00:00 6.8 5 Sudeste 10 Este 0 926.4 0.9 94
2020-02-08 10:00:00 6.1 3 Sudeste 8 Sudeste 0 926.5 1.8 95
2020-02-08 09:00:00 5.4 3 Sur 18 Oeste 0 926.2 1.8 94
2020-02-08 08:00:00 5.5 10 Oeste 19 Sudoeste 0.2 925.5 1.7 93
2020-02-08 07:00:00 6 10 Oeste 45 Oeste 2 924.7 0.8 91
2020-02-08 06:00:00 7.5 20 Oeste 39 Sudoeste 3 924.4 0.2 90
2020-02-08 05:00:00 8 3 Noroeste 12 Nordeste 0.2 923.8 -0.6 89
2020-02-08 04:00:00 8.2 5 Nordeste 14 Norte 0 923.9 -0.7 86
2020-02-08 03:00:00 8.4 8 Nordeste 15 Norte 0 924.2 -0.4 84
2020-02-08 02:00:00 8.7 8 Norte 13 Norte 0 924.4 -0.5 80
2020-02-08 01:00:00 8.9 3 Nordeste 8 Noroeste 0 924.6 -0.2 77
2020-02-08 00:00:00 8.8 3 Nordeste 11 Noroeste 0 924.6 -0.1 74
2020-02-07 23:00:00 9 3 Este 15 Oeste 0 924.9 0.2 73
2020-02-07 22:00:00 9.6 5 Sudoeste 21 Oeste 0 924.8 0.4 72
2020-02-07 21:00:00 9.3 5 Sur 13 Sudoeste 0 924.7 0.5 70
2020-02-07 20:00:00 9 4 Noroeste 13 Sudoeste 0 924.7 0.6 72
2020-02-07 19:00:00 10.6 4 Sudoeste 17 Sudoeste 0 924.4 0 68
2020-02-07 18:00:00 11.7 5 Sudoeste 17 Sudoeste 0 924.2 -0.2 64
2020-02-07 17:00:00 12.7 5 Sudoeste 28 Oeste 0 924.1 -0.4 58
2020-02-07 16:00:00 12.7 10 Oeste 35 Sudoeste 0 924.4 -0.5 62
2020-02-07 15:00:00 14 14 Oeste 27 Sudoeste 0 924.4 -0.8 57
2020-02-07 14:00:00 12.4 4 Nordeste 17 Este 0 924.5 -0.9 66
2020-02-07 13:00:00 11.7 4 Nordeste 12 Este 0 924.9 -0.4 69
2020-02-07 12:00:00 10 4 Norte 10 Este 0 925.2 0 76
2020-02-07 11:00:00 8.2 5 Noroeste 7 Noroeste 0 925.4 0.6 83
2020-02-07 10:00:00 6.2 4 Este 9 Sudoeste 0 925.3 1.1 91
2020-02-07 09:00:00 3.3 4 Oeste 9 Noroeste 0 925.2 0.9 95
2020-02-07 08:00:00 3.2 5 Sudoeste 11 Noroeste 0 924.8 0.6 95
2020-02-07 07:00:00 3.2 4 Noroeste 10 Oeste 0 924.2 0.2 93
2020-02-07 06:00:00 3.6 4 Noroeste 10 Oeste 0 924.3 0.3 94
2020-02-07 05:00:00 3.4 5 Noroeste 10 Noroeste 0 924.2 -0.1 93
2020-02-07 04:00:00 4.1 6 Noroeste 9 Noroeste 0 924 -0.5 91
2020-02-07 03:00:00 5 3 Sudoeste 11 Noroeste 0 924 -0.7 91
2020-02-07 02:00:00 5 6 Noroeste 9 Noroeste 0 924.3 -0.4 86
2020-02-07 01:00:00 6 2 Noroeste 9 Noroeste 0 924.5 -0.2 85
2020-02-07 00:00:00 5.7 6 Noroeste 10 Noroeste 0 924.7 0.5 82
2020-02-06 23:00:00 5.8 6 Noroeste 10 Noroeste 0 924.7 0.9 80
2020-02-06 22:00:00 6.9 4 Noroeste 10 Noroeste 0 924.7 1.2 77
2020-02-06 21:00:00 7.3 6 Noroeste 12 Noroeste 0 924.2 0.9 76
2020-02-06 20:00:00 8.3 6 Noroeste 8 Noroeste 0 923.8 0.6 68
2020-02-06 19:00:00 9.3 0 Calma 10 Norte 0 923.5 0.3 64
2020-02-06 18:00:00 11.5 4 Este 12 Nordeste 0 923.3 -0.4 61
2020-02-06 17:00:00 12.7 6 Este 18 Este 0 923.2 -1.2 57
2020-02-06 16:00:00 13.3 11 Este 18 Este 0 923.2 -1.9 54
2020-02-06 15:00:00 13.1 8 Este 18 Este 0 923.7 -1.8 54
2020-02-06 14:00:00 11.4 7 Este 13 Este 0 924.4 -1.1 58
2020-02-06 13:00:00 10.6 6 Norte 13 Noroeste 0 925.1 -0.4 59
2020-02-06 12:00:00 8.3 7 Nordeste 13 Nordeste 0 925.5 0.2 62
2020-02-06 11:00:00 6.4 4 Noroeste 9 Noroeste 0 925.5 0.8 70
2020-02-06 10:00:00 4.6 3 Norte 9 Noroeste 0 925.5 0.9 74
2020-02-06 09:00:00 1.4 6 Noroeste 11 Noroeste 0 925.3 0.5 83
2020-02-06 08:00:00 0.8 8 Noroeste 12 Noroeste 0 924.7 -0.2 83
2020-02-06 07:00:00 1.9 7 Noroeste 9 Noroeste 0 924.6 -0.6 79
2020-02-06 06:00:00 1.7 5 Noroeste 6 Noroeste 0 924.8 -0.5 81
2020-02-06 05:00:00 2.3 3 Oeste 7 Noroeste 0 924.9 -0.6 78
2020-02-06 04:00:00 3 5 Sudoeste 8 Sudoeste 0 925.2 -0.4 77
2020-02-06 03:00:00 2.9 4 Sudoeste 8 Oeste 0 925.3 -0.3 80
2020-02-06 02:00:00 3.2 3 Sudoeste 6 Sudoeste 0 925.5 -0.4 79
2020-02-06 01:00:00 3.1 3 Nordeste 10 Nordeste 0 925.6 -0.6 80
2020-02-06 00:00:00 3.8 3 Sudoeste 10 Sudoeste 0 925.6 -0.8 78
2020-02-05 23:00:00 4.4 4 Sudoeste 12 Este 0 925.9 -0.4 78
2020-02-05 22:00:00 6.4 11 Este 23 Este 0 926.2 0.2 70
2020-02-05 21:00:00 6.8 7 Este 15 Este 0 926.4 0.1 68
2020-02-05 20:00:00 7.6 3 Nordeste 8 Nordeste 0 926.3 0 66
2020-02-05 19:00:00 9.1 2 Nordeste 10 Nordeste 0 926 -0.6 61
2020-02-05 18:00:00 10.9 5 Este 12 Nordeste 0 926.3 -1.2 58
2020-02-05 17:00:00 11.9 8 Este 16 Nordeste 0 926.3 -2.5 57
2020-02-05 16:00:00 12.3 9 Este 15 Nordeste 0 926.6 -3.2 62
2020-02-05 15:00:00 12.1 6 Este 17 Este 0 927.5 -3.1 66
2020-02-05 14:00:00 11.3 9 Este 18 Este 0 928.8 -2.1 67
2020-02-05 13:00:00 10.1 6 Nordeste 15 Este 0 929.8 -1.4 74
2020-02-05 12:00:00 8.6 8 Sudeste 14 Sudeste 0 930.6 -0.7 81
2020-02-05 11:00:00 5.7 5 Nordeste 12 Sudeste 0 930.9 -0.4 97
2020-02-05 10:00:00 5.1 7 Este 14 Este 0 931.2 -0.3 98
2020-02-05 09:00:00 4.7 4 Sudeste 9 Sudeste 0 931.3 -0.4 98
2020-02-05 08:00:00 4.8 4 Este 9 Este 0 931.3 -0.5 98
2020-02-05 07:00:00 4.7 3 Este 6 Este 0 931.5 -0.4 98
2020-02-05 06:00:00 3.8 2 Sudoeste 8 Norte 0 931.7 -0.5 97
2020-02-05 05:00:00 4.3 6 Noroeste 14 Noroeste 0 931.8 -0.9 97
2020-02-05 04:00:00 4.6 9 Noroeste 14 Noroeste 0 931.9 -1.1 97
2020-02-05 03:00:00 6.3 3 Noroeste 10 Noroeste 0 932.2 -1 97
2020-02-05 02:00:00 6.1 8 Noroeste 11 Noroeste 0 932.7 -0.8 96
2020-02-05 01:00:00 5.6 7 Noroeste 13 Noroeste 0 933 -0.5 95
2020-02-05 00:00:00 7.1 3 Sudoeste 12 Noroeste 0 933.2 -0.4 95
2020-02-04 23:00:00 6 8 Noroeste 10 Noroeste 0 933.5 -0.2 91
2020-02-04 22:00:00 7.2 7 Oeste 12 Noroeste 0 933.5 0.1 90
2020-02-04 21:00:00 7.9 6 Oeste 13 Noroeste 0 933.6 0.7 90
2020-02-04 20:00:00 9.2 5 Oeste 15 Oeste 0 933.7 1.1 87
2020-02-04 19:00:00 10.3 8 Oeste 18 Oeste 0 933.4 0.5 85
2020-02-04 18:00:00 11.2 10 Oeste 20 Oeste 0 932.9 -0.2 83
2020-02-04 12:00:00 12.6 3 Este 10 Sudeste 0 934.3 0.6 65
2020-02-04 11:00:00 10.4 4 Nordeste 19 Noroeste 0 934.5 1.5 68
2020-02-04 10:00:00 8 12 Oeste 19 Noroeste 0 934.3 1.3 66
2020-02-04 09:00:00 4.8 13 Oeste 21 Oeste 0 933.7 0.9 69
2020-02-04 08:00:00 4.2 9 Oeste 17 Oeste 0 933 0.1 77
2020-02-04 07:00:00 4.4 9 Noroeste 18 Noroeste 0 933 -0.1 81
2020-02-04 06:00:00 5.2 11 Noroeste 17 Noroeste 0 932.8 -0.4 82
2020-02-04 05:00:00 5.8 10 Noroeste 17 Oeste 0 932.9 -0.3 84
2020-02-04 04:00:00 7.1 10 Oeste 15 Noroeste 0 933.1 -0.3 81
2020-02-04 03:00:00 7.6 8 Noroeste 15 Noroeste 0 933.2 0.1 78
2020-02-04 02:00:00 9.5 3 Norte 6 Sudoeste 0 933.2 0.4 69
2020-02-04 01:00:00 9.4 5 Noroeste 12 Noroeste 0 933.4 1.1 68
2020-02-04 00:00:00 10.3 5 Noroeste 7 Norte 0 933.1 1.3 65
2020-02-03 23:00:00 11.1 2 Noroeste 14 Oeste 0 932.8 1.3 61
2020-02-03 22:00:00 11.8 4 Sudoeste 12 Sur 0 932.3 1.3 61
2020-02-03 21:00:00 11.6 5 Oeste 11 Sudoeste 0 931.8 1 68
2020-02-03 20:00:00 12.9 3 Sudeste 12 Oeste 0 931.5 0.6 63
2020-02-03 19:00:00 14 7 Noroeste 20 Oeste 0 931 0 58
2020-02-03 18:00:00 15.7 12 Oeste 27 Sudoeste 0 930.8 -0.2 53
2020-02-03 17:00:00 16.9 13 Sudoeste 31 Sudoeste 0 930.9 -0.6 52
2020-02-03 16:00:00 18.2 15 Sudoeste 31 Sudoeste 0 931 -1.2 49
2020-02-03 15:00:00 19.2 10 Sudoeste 30 Sudoeste 0 931 -1.4 42
2020-02-03 14:00:00 17.8 6 Este 13 Nordeste 0 931.5 -0.8 49
2020-02-03 13:00:00 17.3 4 Sudeste 12 Norte 0 932.2 -0.3 47
2020-02-03 12:00:00 14.5 3 Nordeste 13 Oeste 0 932.4 0.2 58
2020-02-03 11:00:00 11.3 6 Nordeste 10 Este 0 932.3 0.5 71
2020-02-03 10:00:00 8.5 2 Noroeste 10 Noroeste 0 932.5 0.8 81
2020-02-03 09:00:00 5.8 3 Oeste 10 Noroeste 0 932.2 0.3 86
2020-02-03 08:00:00 5.2 6 Norte 10 Noroeste 0 931.8 -0.3 88
2020-02-03 07:00:00 5.8 4 Sudoeste 8 Sudoeste 0 931.7 -0.8 88
2020-02-03 06:00:00 6 4 Oeste 8 Nordeste 0 931.9 -0.8 90
2020-02-03 05:00:00 6.4 2 Norte 7 Norte 0 932.1 -0.9 87
2020-02-03 04:00:00 6.8 3 Noroeste 6 Norte 0 932.5 -0.8 85
2020-02-03 03:00:00 7.8 0 Calma 8 Nordeste 0 932.7 -0.5 86
2020-02-03 02:00:00 7.8 5 Noroeste 10 Noroeste 0 933 0 82
2020-02-03 01:00:00 8.2 6 Noroeste 10 Noroeste 0 933.3 0.3 78
2020-02-03 00:00:00 8.2 7 Noroeste 12 Noroeste 0 933.2 0.4 77
2020-02-02 23:00:00 8.8 5 Noroeste 11 Oeste 0 933 0.7 76
2020-02-02 22:00:00 10.8 8 Oeste 10 Oeste 0 933 1.3 67
2020-02-02 21:00:00 11.7 3 Sur 15 Oeste 0 932.8 1.7 70
2020-02-02 20:00:00 13 9 Oeste 19 Sudoeste 0 932.3 1.4 50
2020-02-02 19:00:00 14.1 9 Oeste 21 Sudoeste 0 931.7 1 50
2020-02-02 18:00:00 15.2 8 Oeste 29 Sudoeste 0 931.1 0.4 52
2020-02-02 17:00:00 16.3 9 Sudoeste 27 Oeste 0 930.9 0.1 53
2020-02-02 16:00:00 15.8 6 Sur 16 Este 0 930.7 -0.7 52
2020-02-02 15:00:00 15.1 7 Sudeste 21 Sudeste 0 930.7 -0.6 68
2020-02-02 14:00:00 14.7 9 Este 21 Este 0 930.8 -0.1 70
2020-02-02 13:00:00 15.5 9 Este 22 Este 0 931.4 1.5 70
2020-02-02 12:00:00 13.1 8 Este 17 Norte 0 931.3 1.5 79
2020-02-02 11:00:00 11.9 10 Norte 21 Este 0 930.9 1.7 85
2020-02-02 10:00:00 11.7 10 Nordeste 26 Este 0 929.9 0.8 89
2020-02-02 09:00:00 11.4 9 Este 25 Este 0 929.8 0.4 93
2020-02-02 08:00:00 11 8 Este 17 Sudeste 0 929.2 0.1 93
2020-02-02 07:00:00 10.5 5 Este 10 Este 0 929.1 0.1 91
2020-02-02 06:00:00 10.3 4 Sudeste 13 Sur 0 929.4 0.3 90
2020-02-02 05:00:00 9.6 5 Oeste 13 Nordeste 0 929.1 -0.1 94
2020-02-02 04:00:00 9.9 6 Norte 14 Norte 0 929 -0.4 94
2020-02-02 03:00:00 10.4 4 Nordeste 14 Este 0 929.1 -0.6 92
2020-02-02 02:00:00 10.4 4 Norte 12 Norte 0 929.2 -0.2 92
2020-02-02 01:00:00 10.4 4 Norte 7 Sudoeste 0 929.4 0.4 93
2020-02-02 00:00:00 10.5 3 Este 9 Nordeste 0 929.7 1.2 91
2020-02-01 23:00:00 10.4 5 Norte 9 Norte 0 929.4 0.6 91
2020-02-01 22:00:00 11 3 Sudeste 14 Norte 0 929 0.9 86
2020-02-01 21:00:00 11.8 4 Este 14 Norte 0 928.5 0.9 86
2020-02-01 20:00:00 12.4 4 Norte 13 Nordeste 0 928.8 1.5 84
2020-02-01 19:00:00 12.9 5 Sudoeste 26 Sudoeste 0 928.1 1.5 80
2020-02-01 18:00:00 13.8 9 Oeste 30 Oeste 0 927.6 0.7 77
2020-02-01 17:00:00 15.2 14 Oeste 29 Oeste 0 927.3 0.2 74
2020-02-01 16:00:00 16.5 14 Sudoeste 33 Sudoeste 0 926.6 -0.9 67
2020-02-01 15:00:00 16.8 14 Sudoeste 32 Oeste 0 926.9 0.1 68
2020-02-01 14:00:00 15.7 11 Sudoeste 29 Oeste 0 927.1 0.1 72
2020-02-01 13:00:00 15.2 13 Oeste 33 Oeste 0 927.5 1.1 77
2020-02-01 12:00:00 14.9 13 Sudoeste 28 Sudoeste 0 926.8 1.7 77
2020-02-01 11:00:00 13.8 10 Sudoeste 31 Sudoeste 0 927 2.4 83
2020-02-01 10:00:00 12.3 15 Oeste 31 Oeste 0 926.4 2.3 91
2020-02-01 09:00:00 11.2 6 Sudoeste 27 Sudoeste 0 925.1 1.5 92
2020-02-01 08:00:00 11.3 13 Oeste 25 Sudoeste 0 924.6 0.8 93
2020-02-01 07:00:00 10.9 10 Oeste 18 Oeste 0 924.1 0.2 94
2020-02-01 06:00:00 10.8 7 Oeste 19 Oeste 0 923.6 -0.1 93
2020-02-01 05:00:00 11.2 9 Oeste 26 Oeste 0.2 923.8 0.6 94
2020-02-01 04:00:00 11.4 14 Oeste 31 Oeste 0.2 923.9 1 95
2020-02-01 03:00:00 11.4 14 Oeste 31 Oeste 0.4 923.7 1.1 95
2020-02-01 02:00:00 11.6 12 Oeste 30 Oeste 0 923.2 0.8 94
2020-02-01 01:00:00 11.8 10 Oeste 39 Sudoeste 0.4 922.9 0.7 94
2020-02-01 00:00:00 12 16 Oeste 41 Oeste 0.6 922.6 0.4 94
2020-01-31 23:00:00 11.8 6 Oeste 21 Oeste 1.6 922.4 0.2 93
2020-01-31 22:00:00 12.2 8 Oeste 45 Oeste 1.2 922.2 -0.1 89
2020-01-31 21:00:00 12.1 13 Sudoeste 44 Sudoeste 1 922.2 -0.5 88
2020-01-31 20:00:00 11.7 9 Nordeste 23 Nordeste 0 922.2 -1.1 88
2020-01-31 19:00:00 12 8 Este 22 Este 0 922.3 -1 83
2020-01-31 18:00:00 12.2 5 Norte 17 Este 0 922.7 -1.1 84
2020-01-31 17:00:00 12.5 8 Nordeste 18 Este 0 923.3 -1.3 83
2020-01-31 16:00:00 13.4 8 Nordeste 18 Nordeste 0 923.3 -2 81
2020-01-31 15:00:00 13.4 8 Nordeste 28 Sur 0 923.8 -1.9 80
2020-01-31 14:00:00 14.7 6 Oeste 34 Oeste 0 924.6 -1.4 75
2020-01-31 13:00:00 12.5 5 Este 10 Este 0 925.3 -0.2 83
2020-01-31 12:00:00 11.8 4 Este 9 Este 0 925.7 0.5 90
2020-01-31 11:00:00 10.8 4 Este 12 Norte 0 926 0.8 93
2020-01-31 10:00:00 8.7 4 Noroeste 10 Sudoeste 0 925.5 0.3 97
2020-01-31 09:00:00 8.6 4 Sudeste 12 Sudoeste 0 925.2 0.7 97
2020-01-31 08:00:00 8.4 4 Sudoeste 8 Sur 0 925.2 0.6 97
2020-01-31 07:00:00 8 3 Oeste 13 Noroeste 0 925.2 0.2 97
2020-01-31 06:00:00 8 8 Norte 12 Noroeste 0 924.5 -0.8 97
2020-01-31 05:00:00 8.3 5 Norte 9 Noroeste 0 924.6 -0.7 96
2020-01-31 04:00:00 8.8 6 Noroeste 9 Noroeste 0 925 -0.5 96
2020-01-31 03:00:00 9 5 Sudeste 9 Norte 0 925.3 -0.1 96
2020-01-31 02:00:00 9 4 Noroeste 12 Noroeste 0 925.3 0.2 96
2020-01-31 01:00:00 9.3 4 Noroeste 8 Noroeste 0 925.5 0.5 95
2020-01-31 00:00:00 9.9 3 Nordeste 8 Norte 0 925.4 0.5 94
2020-01-30 23:00:00 9.9 4 Nordeste 9 Sudoeste 0 925.1 0.8 93
2020-01-30 22:00:00 9.6 2 Este 18 Oeste 0 925 1.1 92
2020-01-30 21:00:00 9.5 4 Este 10 Nordeste 0 924.9 1.4 94
2020-01-30 20:00:00 9.3 3 Nordeste 8 Noroeste 0 924.3 1 93
2020-01-30 19:00:00 9.4 3 Oeste 8 Nordeste 0 923.9 0.9 93
2020-01-30 18:00:00 9.7 3 Nordeste 9 Nordeste 0 923.5 0.5 90
2020-01-30 17:00:00 9.8 3 Este 9 Nordeste 0 923.3 -0.1 93
2020-01-30 16:00:00 9.7 4 Este 14 Nordeste 0 923 -0.8 92
2020-01-30 15:00:00 9.5 6 Nordeste 14 Nordeste 0 923 -0.8 89
2020-01-30 14:00:00 9.9 8 Este 15 Oeste 0 923.4 0 86
2020-01-30 13:00:00 10.6 6 Este 30 Oeste 0 923.8 0.4 80
2020-01-30 12:00:00 10.6 10 Sudoeste 33 Oeste 0 923.8 0.8 79
2020-01-30 11:00:00 10.3 11 Sudoeste 34 Sudoeste 0 923.4 0.4 78
2020-01-30 10:00:00 8.7 8 Norte 21 Nordeste 0 923.4 0.6 86
2020-01-30 09:00:00 7.9 9 Nordeste 20 Noroeste 0 923 0 86
2020-01-30 08:00:00 7.8 6 Nordeste 22 Este 0 923 -0.5 83
2020-01-30 07:00:00 8.8 8 Sur 25 Sudeste 0 922.8 -0.6 72
2020-01-30 06:00:00 8.6 6 Sur 36 Oeste 0 923 -0.6 73
2020-01-30 05:00:00 8.9 6 Sudoeste 31 Sudoeste 0 923.5 -0.5 76
2020-01-30 04:00:00 8.8 6 Sudoeste 23 Sudoeste 0 923.4 -1.1 84
2020-01-30 03:00:00 8.6 7 Sur 23 Este 0 923.6 -0.9 87
2020-01-30 02:00:00 8.9 8 Nordeste 23 Sudoeste 0 924 -0.4 83
2020-01-30 01:00:00 8.9 6 Norte 16 Nordeste 0 924.5 0 87
2020-01-30 00:00:00 9.4 6 Oeste 21 Oeste 0 924.5 0.2 80
2020-01-29 23:00:00 9.6 5 Sudoeste 18 Sudoeste 0.2 924.4 0.4 84
2020-01-29 22:00:00 9.7 7 Sudoeste 26 Sudoeste 0 924.5 0.6 89
2020-01-29 21:00:00 9.7 6 Sudoeste 23 Sudoeste 0 924.3 0.6 92
2020-01-29 20:00:00 9.6 6 Norte 19 Sudoeste 0 924 0.5 94
2020-01-29 19:00:00 9.8 8 Sudoeste 18 Sur 0.2 923.9 0.6 93
2020-01-29 18:00:00 10.3 3 Sudeste 21 Sudoeste 0 923.7 0.2 92
2020-01-29 17:00:00 10.7 12 Oeste 27 Oeste 0.2 923.5 -0.1 88
2020-01-29 16:00:00 10.8 10 Sudoeste 33 Sudoeste 0 923.3 -0.8 91
2020-01-29 15:00:00 9.8 2 Noroeste 13 Nordeste 0.2 923.5 -1 95
2020-01-29 14:00:00 9.6 3 Nordeste 14 Nordeste 0.2 923.6 -0.4 95
2020-01-29 13:00:00 9.1 5 Este 18 Nordeste 0 924.1 0.3 95
2020-01-29 12:00:00 8.8 7 Nordeste 17 Nordeste 0.2 924.5 0.7 96
2020-01-29 11:00:00 8.7 8 Nordeste 15 Nordeste 0 924 0 96
2020-01-29 10:00:00 8.3 7 Este 15 Este 0.4 923.8 0 97
2020-01-29 09:00:00 8.1 6 Nordeste 14 Nordeste 0.4 923.8 0.2 97
2020-01-29 08:00:00 8.1 5 Este 10 Nordeste 0.8 924 0.2 96
2020-01-29 07:00:00 8.2 5 Norte 16 Oeste 0.4 923.8 -0.3 95
2020-01-29 06:00:00 8.5 8 Oeste 17 Sudoeste 0.2 923.6 -0.7 93
2020-01-29 05:00:00 8.7 9 Oeste 19 Oeste 0 923.8 -0.5 94
2020-01-29 04:00:00 8.3 3 Nordeste 8 Este 0 924.1 -0.3 95
2020-01-29 03:00:00 8.6 3 Sur 22 Oeste 0 924.3 0.1 94
2020-01-29 02:00:00 9.1 11 Oeste 23 Oeste 0.2 924.3 0.3 95
2020-01-29 01:00:00 9.3 16 Oeste 37 Oeste 0 924.4 0.6 94
2020-01-29 00:00:00 9.4 16 Oeste 39 Oeste 0 924.2 0.6 94
2020-01-28 23:00:00 9.8 15 Oeste 35 Oeste 0.4 924 0.5 94
2020-01-28 22:00:00 9.8 16 Oeste 42 Oeste 0 923.8 0.6 95
2020-01-28 21:00:00 9.6 10 Oeste 25 Oeste 0.2 923.6 0.7 96
2020-01-28 20:00:00 9 4 Noroeste 9 Noroeste 0.2 923.5 0.8 95
2020-01-28 19:00:00 9.4 3 Sur 13 Sudoeste 0 923.2 0.5 93
2020-01-28 18:00:00 10.1 6 Oeste 22 Oeste 0 922.9 -0.2 88
2020-01-28 17:00:00 10.2 10 Oeste 22 Oeste 0 922.7 -1 90
2020-01-28 16:00:00 9.2 4 Nordeste 7 Nordeste 0.2 922.7 -1.6 95
2020-01-28 15:00:00 8.6 3 Nordeste 7 Este 0 923.1 -1.3 95
2020-01-28 14:00:00 8.1 4 Este 9 Sudeste 0 923.7 -0.4 92
2020-01-28 13:00:00 7.9 4 Este 13 Oeste 0 924.3 0.5 90
2020-01-28 12:00:00 8.1 7 Oeste 15 Oeste 0 924.4 1.1 92
2020-01-28 11:00:00 7.9 6 Oeste 21 Sudoeste 0 924.1 1.3 90
2020-01-28 10:00:00 7.2 9 Oeste 18 Oeste 0 923.8 1 94
2020-01-28 09:00:00 6.4 7 Noroeste 15 Noroeste 0 923.3 0.8 94
2020-01-28 08:00:00 6.5 11 Oeste 31 Oeste 0.2 922.8 0.6 92
2020-01-28 07:00:00 6.7 9 Oeste 21 Oeste 0 922.8 0.4 94
2020-01-28 06:00:00 6.9 7 Oeste 26 Oeste 0 922.5 0.1 94
2020-01-28 05:00:00 6.9 10 Oeste 26 Oeste 0 922.2 0.1 94
2020-01-28 04:00:00 6.8 13 Oeste 26 Oeste 0 922.4 0.9 95
2020-01-28 03:00:00 6.8 7 Oeste 25 Oeste 0 922.4 1.4 95
2020-01-28 02:00:00 7.4 13 Oeste 28 Oeste 0.6 922.1 1.7 95
2020-01-28 01:00:00 8.4 14 Oeste 38 Oeste 0.8 921.5 1.8 95
2020-01-28 00:00:00 8.7 18 Oeste 42 Oeste 2.2 921 1.1 95
2020-01-27 23:00:00 9.1 23 Oeste 63 Oeste 0.8 920.4 0.4 94
2020-01-27 22:00:00 9 23 Oeste 57 Sudoeste 0.6 919.7 -0.3 92
2020-01-27 21:00:00 7.7 7 Sudoeste 23 Oeste 0.2 919.9 0.2 92
2020-01-27 20:00:00 7.9 5 Sudoeste 32 Sudoeste 0.4 920 0.4 86
2020-01-27 19:00:00 7.9 10 Oeste 31 Sudoeste 0 920 0.3 82
2020-01-27 18:00:00 8 20 Sudoeste 47 Sudoeste 0 919.7 0.1 81
2020-01-27 17:00:00 8.4 20 Sudoeste 48 Oeste 0.4 919.6 -0.4 84
2020-01-27 16:00:00 9.4 21 Sudoeste 54 Sudoeste 0 919.7 -1.1 71
2020-01-27 15:00:00 9.7 23 Sudoeste 58 Sudoeste 0 919.6 -2 68
2020-01-27 14:00:00 8.9 23 Sudoeste 52 Oeste 0 920 -1.2 71
2020-01-27 13:00:00 8.8 17 Sudoeste 36 Oeste 0 920.8 0.4 79
2020-01-27 12:00:00 7.5 17 Oeste 45 Sudoeste 1 921.6 1.9 83
2020-01-27 11:00:00 7.2 21 Oeste 54 Noroeste 5 921.2 1.7 88
2020-01-27 10:00:00 8.7 13 Oeste 45 Sudoeste 1.4 920.4 0.5 86
2020-01-27 09:00:00 8.5 12 Sudoeste 44 Sudoeste 0.4 919.7 -0.8 81
2020-01-27 08:00:00 8.3 15 Sudoeste 46 Oeste 0.8 919.5 -1.4 82
2020-01-27 07:00:00 8.4 16 Sudoeste 49 Sudoeste 0 919.9 -1.7 79
2020-01-27 06:00:00 5.7 10 Nordeste 26 Nordeste 0 920.5 -1.4 94
2020-01-27 05:00:00 5.4 9 Nordeste 26 Nordeste 0 920.9 -1.9 92
2020-01-27 04:00:00 5.8 11 Nordeste 29 Este 0 921.6 -1.8 90
2020-01-27 03:00:00 6.2 9 Nordeste 21 Nordeste 0 921.9 -1.9 86
2020-01-27 02:00:00 6.7 10 Este 29 Este 0 922.8 -1.4 80
2020-01-27 01:00:00 6 6 Sudeste 15 Nordeste 0 923.4 -0.7 83
2020-01-27 00:00:00 6.5 7 Nordeste 17 Este 0 923.8 -0.6 81
2020-01-26 23:00:00 6.7 8 Este 15 Este 0 924.2 -0.3 80
2020-01-26 22:00:00 7.2 5 Sudeste 27 Sur 0 924.1 -0.3 75
2020-01-26 21:00:00 7.1 7 Sur 31 Sudoeste 0 924.4 0.4 73
2020-01-26 20:00:00 7.3 6 Sudeste 28 Sudoeste 0 924.5 0.2 69
2020-01-26 19:00:00 7.2 9 Sudoeste 22 Sudoeste 0 924.4 0.3 73
2020-01-26 18:00:00 7.9 4 Sudoeste 24 Sudoeste 0 924 -0.2 66
2020-01-26 17:00:00 8.4 9 Oeste 29 Oeste 0 924.3 -0.1 63
2020-01-26 16:00:00 9.2 8 Sudoeste 28 Sudoeste 0 924.1 -0.6 61
2020-01-26 15:00:00 9.4 11 Oeste 27 Oeste 0 924.2 -0.9 60
2020-01-26 14:00:00 11.3 12 Sudoeste 25 Sudoeste 0 924.4 -0.5 54
2020-01-26 13:00:00 9 11 Sudoeste 32 Oeste 0 924.7 0.1 63
2020-01-26 12:00:00 7 3 Este 8 Este 0 925.1 0.9 75
2020-01-26 11:00:00 4.6 2 Norte 12 Noroeste 0 924.9 1.4 82
2020-01-26 10:00:00 2.5 8 Noroeste 11 Noroeste 0 924.6 1.6 88
2020-01-26 09:00:00 1.3 4 Sudoeste 13 Noroeste 0 924.2 1.4 89
2020-01-26 08:00:00 0.6 8 Noroeste 16 Oeste 0 923.5 1 90
2020-01-26 07:00:00 -0.2 9 Noroeste 16 Oeste 0 923 0.5 90
2020-01-26 06:00:00 0.8 5 Oeste 22 Oeste 0 922.8 0.6 87
2020-01-26 05:00:00 1.4 11 Oeste 19 Oeste 0 922.5 0.4 88
2020-01-26 04:00:00 1.5 10 Noroeste 17 Oeste 0 922.5 0.8 87
2020-01-26 03:00:00 2 12 Oeste 19 Oeste 0 922.2 0.6 86
2020-01-26 02:00:00 2.3 10 Oeste 15 Oeste 0 922.1 0.5 86
2020-01-26 01:00:00 3.7 8 Oeste 12 Noroeste 0 921.7 0.4 84
2020-01-26 00:00:00 4 3 Sudoeste 14 Oeste 0 921.6 0.8 82
2020-01-25 23:00:00 4.6 9 Oeste 23 Oeste 0 921.6 1.3 81
2020-01-25 22:00:00 4.1 11 Oeste 25 Oeste 0 921.3 1.5 81
2020-01-25 21:00:00 4.1 9 Oeste 18 Sudoeste 0 920.8 1.5 77
2020-01-25 20:00:00 5.1 9 Oeste 16 Oeste 0 920.3 1.4 73
2020-01-25 19:00:00 5.4 5 Oeste 7 Oeste 0 919.8 1.1 73
2020-01-25 18:00:00 7.4 5 Oeste 9 Oeste 0 919.3 0.5 68
2020-01-25 17:00:00 8 4 Este 8 Nordeste 0 918.9 -0.3 58
2020-01-25 16:00:00 8.6 5 Noroeste 10 Noroeste 0 918.7 -1.2 61
2020-01-25 15:00:00 8.7 3 Sudoeste 9 Este 0 918.8 -1.5 54
2020-01-25 14:00:00 8.1 6 Sudeste 11 Sudeste 0 919.2 -0.9 64
2020-01-25 13:00:00 7.7 3 Norte 10 Este 0 919.9 -0.1 69
2020-01-25 12:00:00 7.1 4 Norte 8 Noroeste 0 920.3 0.6 80
2020-01-25 11:00:00 3.9 4 Noroeste 10 Noroeste 0 920.1 0.7 92
2020-01-25 10:00:00 1.9 6 Noroeste 10 Noroeste 0 920 0.9 93
2020-01-25 09:00:00 1.2 5 Noroeste 10 Noroeste 0 919.7 0.6 93
2020-01-25 08:00:00 0.9 8 Noroeste 14 Noroeste 0 919.4 0.1 94
2020-01-25 07:00:00 0.5 9 Noroeste 12 Noroeste 0 919.1 -0.4 94
2020-01-25 06:00:00 0.1 8 Noroeste 12 Noroeste 0 919.1 -0.8 94
2020-01-25 05:00:00 0.5 6 Noroeste 10 Noroeste 0 919.3 -0.9 94
2020-01-25 04:00:00 0.6 8 Noroeste 12 Oeste 0 919.5 -1 94
2020-01-25 03:00:00 0 8 Noroeste 14 Noroeste 0 919.9 -0.9 95
2020-01-25 02:00:00 0.4 8 Noroeste 14 Noroeste 0 920.2 -0.9 94
2020-01-25 01:00:00 1.1 9 Noroeste 14 Noroeste 0 920.5 -0.6 94
2020-01-25 00:00:00 2.2 4 Noroeste 9 Oeste 0 920.8 -0.6 94
2020-01-24 23:00:00 3.1 4 Noroeste 11 Noroeste 0 921.1 -0.3 93
2020-01-24 22:00:00 3.5 6 Oeste 11 Noroeste 0 921.1 -0.1 94
2020-01-24 21:00:00 4 6 Noroeste 9 Noroeste 0 921.4 0.4 93
2020-01-24 20:00:00 4.4 5 Noroeste 8 Noroeste 0 921.4 0.5 91
2020-01-24 19:00:00 5.2 3 Sudoeste 6 Este 0.6 921.2 0.4 88
2020-01-24 18:00:00 6.3 5 Sur 11 Sudoeste 1.6 921 0 84
2020-01-24 17:00:00 7.5 3 Sur 6 Sur 0.4 920.9 -0.6 83
2020-01-24 16:00:00 7.6 4 Sudeste 10 Sudeste 0 920.8 -1.6 78
2020-01-24 15:00:00 7.6 6 Este 12 Este 0 921 -1.6 74
2020-01-24 14:00:00 7.4 6 Este 13 Sudeste 0 921.5 -0.9 76
2020-01-24 13:00:00 6.9 6 Sudeste 13 Sudeste 0 922.4 0.3 76
2020-01-24 12:00:00 6.7 4 Sudeste 10 Sudeste 0 922.6 0.8 76
2020-01-24 11:00:00 4.6 3 Sudeste 10 Norte 0 922.4 1.3 81
2020-01-24 10:00:00 3.4 3 Sudoeste 7 Oeste 0 922.1 1.3 88
2020-01-24 09:00:00 1.7 4 Noroeste 7 Oeste 0 921.8 1 89
2020-01-24 08:00:00 2.4 3 Sur 8 Oeste 0 921.1 0.5 87
2020-01-24 07:00:00 2.8 3 Sudoeste 10 Noroeste 0 920.8 0 85
2020-01-24 06:00:00 3.5 3 Sudoeste 14 Nordeste 0 920.8 -0.4 83
2020-01-24 05:00:00 3.6 7 Este 15 Este 0 920.6 -0.6 82
2020-01-24 04:00:00 4.4 7 Sudeste 12 Sudeste 0 920.8 -0.5 79
2020-01-24 03:00:00 3.7 3 Oeste 11 Nordeste 0 921.2 0.2 79
2020-01-24 02:00:00 4.1 5 Norte 7 Noroeste 0 921.2 0.3 76
2020-01-24 01:00:00 4.7 0 Calma 10 Nordeste 0 921.3 0.6 74
2020-01-24 00:00:00 4.1 7 Noroeste 11 Norte 0 921 0.6 78
2020-01-23 23:00:00 4.4 3 Noroeste 10 Noroeste 0 920.9 1 74
2020-01-23 22:00:00 5 0 Calma 5 Sudoeste 0 920.7 1.6 73
2020-01-23 21:00:00 5 2 Sudoeste 12 Nordeste 0 920.4 1.4 73
2020-01-23 20:00:00 5.5 7 Nordeste 16 Nordeste 0 919.9 1.2 71
2020-01-23 19:00:00 5.6 2 Este 7 Oeste 0 919.1 0.6 70
2020-01-23 18:00:00 6.9 3 Sur 22 Nordeste 0 919 0 66
2020-01-23 17:00:00 8.3 14 Este 25 Este 0 918.7 -0.8 61
2020-01-23 16:00:00 8.7 11 Este 21 Sudeste 0 918.5 -1.8 60
2020-01-23 15:00:00 9 10 Este 24 Este 0 919 -1.8 57
2020-01-23 14:00:00 8.5 12 Nordeste 25 Este 0 919.5 -1.1 60
2020-01-23 13:00:00 7.4 13 Este 24 Nordeste 0 920.3 -0.5 64
2020-01-23 12:00:00 5.3 12 Este 22 Este 0 920.8 0.6 72
2020-01-23 11:00:00 5 11 Este 22 Sudeste 0 920.6 0.6 74
2020-01-23 10:00:00 3.7 12 Este 30 Este 0 920.8 1.1 81
2020-01-23 09:00:00 1.7 8 Este 22 Este 0 920.2 0.5 89
2020-01-23 08:00:00 1.7 6 Sudeste 20 Este 0 920 0.2 88
2020-01-23 07:00:00 1.6 7 Este 14 Nordeste 0 919.7 -0.3 87
2020-01-23 06:00:00 1.8 7 Este 15 Este 0 919.7 -0.3 86
2020-01-23 05:00:00 2 9 Nordeste 15 Nordeste 0 919.8 -0.3 86
2020-01-23 04:00:00 2.2 4 Este 12 Este 0 920 -0.7 85
2020-01-23 03:00:00 2.7 7 Este 18 Nordeste 0 920 -0.6 80
2020-01-23 02:00:00 3.3 8 Nordeste 15 Nordeste 0 920.1 -0.4 78
2020-01-23 01:00:00 3.8 7 Este 14 Este 0 920.7 0.3 75
2020-01-23 00:00:00 3.9 6 Este 9 Este 0 920.6 0.1 77
2020-01-22 23:00:00 4.4 2 Sur 6 Sudoeste 0 920.5 -0.1 70
2020-01-22 22:00:00 4.5 6 Oeste 11 Oeste 0 920.4 -0.3 72
2020-01-22 21:00:00 5.3 5 Sudoeste 11 Nordeste 0 920.5 -0.1 69
2020-01-22 20:00:00 5.8 5 Noroeste 6 Norte 0 920.6 0.1 69
2020-01-22 19:00:00 6.3 4 Oeste 10 Este 0 920.7 -0.2 67
2020-01-22 18:00:00 7.9 5 Sudeste 25 Este 0 920.6 -0.9 60
2020-01-22 17:00:00 8.3 13 Este 28 Nordeste 0 920.5 -1.9 61
2020-01-22 16:00:00 8.6 17 Este 32 Nordeste 0 920.9 -2.2 61
2020-01-22 15:00:00 7.9 12 Este 24 Este 0 921.5 -1.9 63
2020-01-22 14:00:00 8.5 11 Este 30 Este 0 922.4 -1.1 63
2020-01-22 13:00:00 7.6 12 Este 24 Este 0 923.1 -0.1 65
2020-01-22 12:00:00 7.2 15 Este 27 Este 0 923.4 0.6 65
2020-01-22 11:00:00 5.3 5 Este 14 Este 0 923.5 0.8 70
2020-01-22 10:00:00 5 5 Sudeste 11 Este 0 923.2 0.4 67
2020-01-22 09:00:00 5 5 Sudeste 17 Este 0 922.8 -0.1 65
2020-01-22 08:00:00 4.3 3 Este 7 Sudeste 0 922.7 -0.1 68
2020-01-22 07:00:00 3.5 3 Este 7 Sur 0 922.8 -0.1 70
2020-01-22 06:00:00 3.1 4 Norte 13 Norte 0 922.9 -0.1 70
2020-01-22 05:00:00 3.7 3 Nordeste 13 Noroeste 0 922.8 -0.5 67
2020-01-22 04:00:00 4.5 3 Norte 17 Sur 0 922.9 -0.4 65
2020-01-22 03:00:00 5.6 8 Sudeste 21 Sudeste 0 923 -0.1 60
2020-01-22 02:00:00 3 10 Oeste 20 Oeste 0 923.3 0.1 74
2020-01-22 01:00:00 4.1 8 Noroeste 22 Este 0 923.3 0.1 69
2020-01-22 00:00:00 7.1 10 Este 24 Este 0 923.1 -0.3 58